sensor_id;sensor_type;location;lat;lon;timestamp;temperature;humidity
12053;DHT22;6087;48.982;12.064;2022-10-04T00:01:24;8.50;99.90
12053;DHT22;6087;48.982;12.064;2022-10-04T00:04:02;8.50;99.90
12053;DHT22;6087;48.982;12.064;2022-10-04T00:06:31;8.50;99.90
12053;DHT22;6087;48.982;12.064;2022-10-04T00:08:59;8.50;99.90
12053;DHT22;6087;48.982;12.064;2022-10-04T00:11:33;8.50;99.90
12053;DHT22;6087;48.982;12.064;2022-10-04T00:14:05;8.50;99.90
12053;DHT22;6087;48.982;12.064;2022-10-04T00:16:36;8.60;99.90
12053;DHT22;6087;48.982;12.064;2022-10-04T00:19:37;8.50;99.90
12053;DHT22;6087;48.982;12.064;2022-10-04T00:22:11;8.40;99.90
12053;DHT22;6087;48.982;12.064;2022-10-04T00:25:14;8.40;99.90
12053;DHT22;6087;48.982;12.064;2022-10-04T00:31:09;8.40;99.90
12053;DHT22;6087;48.982;12.064;2022-10-04T00:33:38;8.40;99.90
12053;DHT22;6087;48.982;12.064;2022-10-04T00:39:43;8.40;99.90
12053;DHT22;6087;48.982;12.064;2022-10-04T00:42:51;8.40;99.90
12053;DHT22;6087;48.982;12.064;2022-10-04T00:45:30;8.40;99.90
12053;DHT22;6087;48.982;12.064;2022-10-04T00:50:49;8.40;99.90
12053;DHT22;6087;48.982;12.064;2022-10-04T00:53:37;8.40;93.20
12053;DHT22;6087;48.982;12.064;2022-10-04T00:56:08;8.40;91.60
12053;DHT22;6087;48.982;12.064;2022-10-04T00:58:45;8.30;84.40
12053;DHT22;6087;48.982;12.064;2022-10-04T01:01:18;8.40;80.40
12053;DHT22;6087;48.982;12.064;2022-10-04T01:03:48;8.40;64.30
12053;DHT22;6087;48.982;12.064;2022-10-04T01:06:16;8.40;52.50
12053;DHT22;6087;48.982;12.064;2022-10-04T01:08:48;8.30;78.40
12053;DHT22;6087;48.982;12.064;2022-10-04T01:11:21;8.20;95.00
12053;DHT22;6087;48.982;12.064;2022-10-04T01:13:52;8.10;99.90
12053;DHT22;6087;48.982;12.064;2022-10-04T01:16:24;8.10;99.90
12053;DHT22;6087;48.982;12.064;2022-10-04T01:18:52;8.20;96.50
12053;DHT22;6087;48.982;12.064;2022-10-04T01:21:25;8.30;93.80
12053;DHT22;6087;48.982;12.064;2022-10-04T01:24:16;8.30;63.40
12053;DHT22;6087;48.982;12.064;2022-10-04T01:26:44;8.30;74.50
12053;DHT22;6087;48.982;12.064;2022-10-04T01:29:14;8.40;69.20
12053;DHT22;6087;48.982;12.064;2022-10-04T01:31:43;8.40;61.60
12053;DHT22;6087;48.982;12.064;2022-10-04T01:34:12;8.40;43.50
12053;DHT22;6087;48.982;12.064;2022-10-04T01:36:40;8.40;42.70
12053;DHT22;6087;48.982;12.064;2022-10-04T01:39:09;8.40;32.00
12053;DHT22;6087;48.982;12.064;2022-10-04T01:41:42;8.40;23.90
12053;DHT22;6087;48.982;12.064;2022-10-04T01:44:15;8.30;26.90
12053;DHT22;6087;48.982;12.064;2022-10-04T01:46:45;8.30;29.40
12053;DHT22;6087;48.982;12.064;2022-10-04T01:49:16;8.30;22.20
12053;DHT22;6087;48.982;12.064;2022-10-04T01:51:49;8.30;10.40
12053;DHT22;6087;48.982;12.064;2022-10-04T01:54:24;8.30;3.10
12053;DHT22;6087;48.982;12.064;2022-10-04T01:56:59;8.20;13.50
12053;DHT22;6087;48.982;12.064;2022-10-04T01:59:34;8.10;21.20
12053;DHT22;6087;48.982;12.064;2022-10-04T02:02:06;8.00;46.90
12053;DHT22;6087;48.982;12.064;2022-10-04T02:04:37;7.90;55.90
12053;DHT22;6087;48.982;12.064;2022-10-04T02:07:10;7.90;56.50
12053;DHT22;6087;48.982;12.064;2022-10-04T02:09:42;7.90;48.70
12053;DHT22;6087;48.982;12.064;2022-10-04T02:12:13;8.00;44.40
12053;DHT22;6087;48.982;12.064;2022-10-04T02:14:47;8.00;36.60
12053;DHT22;6087;48.982;12.064;2022-10-04T02:17:19;8.00;27.90
12053;DHT22;6087;48.982;12.064;2022-10-04T02:19:47;8.00;23.40
12053;DHT22;6087;48.982;12.064;2022-10-04T02:22:15;8.00;30.50
12053;DHT22;6087;48.982;12.064;2022-10-04T02:24:46;7.90;41.70
12053;DHT22;6087;48.982;12.064;2022-10-04T02:27:15;7.90;37.40
12053;DHT22;6087;48.982;12.064;2022-10-04T02:29:42;7.80;24.50
12053;DHT22;6087;48.982;12.064;2022-10-04T02:32:09;7.70;29.50
12053;DHT22;6087;48.982;12.064;2022-10-04T02:34:55;7.60;42.70
12053;DHT22;6087;48.982;12.064;2022-10-04T02:37:22;7.50;63.00
12053;DHT22;6087;48.982;12.064;2022-10-04T02:39:54;7.40;97.90
12053;DHT22;6087;48.982;12.064;2022-10-04T02:42:32;7.30;99.90
12053;DHT22;6087;48.982;12.064;2022-10-04T02:45:07;7.40;99.90
12053;DHT22;6087;48.982;12.064;2022-10-04T02:47:41;7.50;99.90
12053;DHT22;6087;48.982;12.064;2022-10-04T02:50:20;7.60;99.90
12053;DHT22;6087;48.982;12.064;2022-10-04T02:52:54;7.70;99.90
12053;DHT22;6087;48.982;12.064;2022-10-04T02:55:26;7.70;92.20
12053;DHT22;6087;48.982;12.064;2022-10-04T02:57:54;7.60;72.40
12053;DHT22;6087;48.982;12.064;2022-10-04T03:00:24;7.60;47.60
12053;DHT22;6087;48.982;12.064;2022-10-04T03:03:18;7.60;76.60
12053;DHT22;6087;48.982;12.064;2022-10-04T03:05:54;7.60;55.80
12053;DHT22;6087;48.982;12.064;2022-10-04T03:08:22;7.60;28.10
12053;DHT22;6087;48.982;12.064;2022-10-04T03:10:50;7.50;18.90
12053;DHT22;6087;48.982;12.064;2022-10-04T03:13:18;7.50;7.90
12053;DHT22;6087;48.982;12.064;2022-10-04T03:15:46;7.60;1.00
12053;DHT22;6087;48.982;12.064;2022-10-04T03:18:15;7.50;1.00
12053;DHT22;6087;48.982;12.064;2022-10-04T03:20:43;7.50;1.00
12053;DHT22;6087;48.982;12.064;2022-10-04T03:23:13;7.50;1.00
12053;DHT22;6087;48.982;12.064;2022-10-04T03:25:46;7.50;1.00
12053;DHT22;6087;48.982;12.064;2022-10-04T03:28:16;7.50;7.90
12053;DHT22;6087;48.982;12.064;2022-10-04T03:30:44;7.50;1.00
12053;DHT22;6087;48.982;12.064;2022-10-04T03:33:16;7.40;17.10
12053;DHT22;6087;48.982;12.064;2022-10-04T03:35:48;7.30;47.50
12053;DHT22;6087;48.982;12.064;2022-10-04T03:38:16;7.30;67.80
12053;DHT22;6087;48.982;12.064;2022-10-04T03:40:49;7.30;69.60
12053;DHT22;6087;48.982;12.064;2022-10-04T03:43:21;7.40;70.60
12053;DHT22;6087;48.982;12.064;2022-10-04T03:45:49;7.50;62.80
12053;DHT22;6087;48.982;12.064;2022-10-04T03:48:24;7.50;46.70
12053;DHT22;6087;48.982;12.064;2022-10-04T03:50:53;7.50;22.50
12053;DHT22;6087;48.982;12.064;2022-10-04T03:53:31;7.50;2.10
12053;DHT22;6087;48.982;12.064;2022-10-04T03:56:01;7.50;16.40
12053;DHT22;6087;48.982;12.064;2022-10-04T03:58:31;7.50;15.00
12053;DHT22;6087;48.982;12.064;2022-10-04T04:01:16;7.60;1.00
12053;DHT22;6087;48.982;12.064;2022-10-04T04:03:58;7.60;4.00
12053;DHT22;6087;48.982;12.064;2022-10-04T04:06:36;7.50;1.10
12053;DHT22;6087;48.982;12.064;2022-10-04T04:09:06;7.60;1.00
12053;DHT22;6087;48.982;12.064;2022-10-04T04:11:34;7.60;1.00
12053;DHT22;6087;48.982;12.064;2022-10-04T04:14:07;7.50;2.70
12053;DHT22;6087;48.982;12.064;2022-10-04T04:16:36;7.40;25.30
12053;DHT22;6087;48.982;12.064;2022-10-04T04:19:10;7.30;31.40
12053;DHT22;6087;48.982;12.064;2022-10-04T04:21:37;7.30;37.10
12053;DHT22;6087;48.982;12.064;2022-10-04T04:24:13;7.30;12.10
12053;DHT22;6087;48.982;12.064;2022-10-04T04:26:46;7.20;26.20
12053;DHT22;6087;48.982;12.064;2022-10-04T04:29:21;7.20;59.30
12053;DHT22;6087;48.982;12.064;2022-10-04T04:31:52;7.30;38.80
12053;DHT22;6087;48.982;12.064;2022-10-04T04:34:23;7.30;25.40
12053;DHT22;6087;48.982;12.064;2022-10-04T04:36:57;7.40;8.90
12053;DHT22;6087;48.982;12.064;2022-10-04T04:39:25;7.30;11.70
12053;DHT22;6087;48.982;12.064;2022-10-04T04:42:12;7.20;28.90
12053;DHT22;6087;48.982;12.064;2022-10-04T04:44:48;7.10;53.80
12053;DHT22;6087;48.982;12.064;2022-10-04T04:47:31;7.20;58.00
12053;DHT22;6087;48.982;12.064;2022-10-04T04:50:04;7.20;83.10
12053;DHT22;6087;48.982;12.064;2022-10-04T04:52:33;7.30;66.40
12053;DHT22;6087;48.982;12.064;2022-10-04T04:55:01;7.30;77.50
12053;DHT22;6087;48.982;12.064;2022-10-04T04:57:28;7.30;69.10
12053;DHT22;6087;48.982;12.064;2022-10-04T04:59:58;7.30;92.40
12053;DHT22;6087;48.982;12.064;2022-10-04T05:02:31;7.30;99.20
12053;DHT22;6087;48.982;12.064;2022-10-04T05:05:19;7.30;93.40
12053;DHT22;6087;48.982;12.064;2022-10-04T05:07:47;7.40;84.30
12053;DHT22;6087;48.982;12.064;2022-10-04T05:10:29;7.40;87.40
12053;DHT22;6087;48.982;12.064;2022-10-04T05:12:57;7.40;73.20
12053;DHT22;6087;48.982;12.064;2022-10-04T05:15:31;7.50;72.80
12053;DHT22;6087;48.982;12.064;2022-10-04T05:17:59;7.60;62.20
12053;DHT22;6087;48.982;12.064;2022-10-04T05:20:27;7.60;58.80
12053;DHT22;6087;48.982;12.064;2022-10-04T05:22:57;7.60;53.40
12053;DHT22;6087;48.982;12.064;2022-10-04T05:25:27;7.60;50.20
12053;DHT22;6087;48.982;12.064;2022-10-04T05:27:55;7.50;63.90
12053;DHT22;6087;48.982;12.064;2022-10-04T05:30:39;7.50;73.10
12053;DHT22;6087;48.982;12.064;2022-10-04T05:33:10;7.50;40.70
12053;DHT22;6087;48.982;12.064;2022-10-04T05:35:45;7.40;60.80
12053;DHT22;6087;48.982;12.064;2022-10-04T05:38:23;7.40;62.40
12053;DHT22;6087;48.982;12.064;2022-10-04T05:40:56;7.40;79.70
12053;DHT22;6087;48.982;12.064;2022-10-04T05:43:34;7.40;90.20
12053;DHT22;6087;48.982;12.064;2022-10-04T05:46:16;7.30;90.20
12053;DHT22;6087;48.982;12.064;2022-10-04T05:48:46;7.40;99.90
12053;DHT22;6087;48.982;12.064;2022-10-04T05:51:18;7.40;99.50
12053;DHT22;6087;48.982;12.064;2022-10-04T05:53:46;7.50;94.70
12053;DHT22;6087;48.982;12.064;2022-10-04T05:56:29;7.50;89.00
12053;DHT22;6087;48.982;12.064;2022-10-04T05:59:06;7.60;91.80
12053;DHT22;6087;48.982;12.064;2022-10-04T06:01:45;7.70;58.80
12053;DHT22;6087;48.982;12.064;2022-10-04T06:04:29;7.50;77.70
12053;DHT22;6087;48.982;12.064;2022-10-04T06:07:00;7.60;81.30
12053;DHT22;6087;48.982;12.064;2022-10-04T06:09:42;7.70;81.00
12053;DHT22;6087;48.982;12.064;2022-10-04T06:12:16;7.70;80.90
12053;DHT22;6087;48.982;12.064;2022-10-04T06:14:59;7.80;79.70
12053;DHT22;6087;48.982;12.064;2022-10-04T06:17:51;7.90;78.90
12053;DHT22;6087;48.982;12.064;2022-10-04T06:20:48;7.80;90.50
12053;DHT22;6087;48.982;12.064;2022-10-04T06:23:20;7.80;84.70
12053;DHT22;6087;48.982;12.064;2022-10-04T06:25:50;7.90;91.70
12053;DHT22;6087;48.982;12.064;2022-10-04T06:28:23;8.00;90.00
12053;DHT22;6087;48.982;12.064;2022-10-04T06:31:13;8.00;90.40
12053;DHT22;6087;48.982;12.064;2022-10-04T06:34:28;8.10;88.00
12053;DHT22;6087;48.982;12.064;2022-10-04T06:37:21;8.10;89.20
12053;DHT22;6087;48.982;12.064;2022-10-04T06:40:14;8.20;90.20
12053;DHT22;6087;48.982;12.064;2022-10-04T06:43:06;8.20;91.90
12053;DHT22;6087;48.982;12.064;2022-10-04T06:45:53;8.30;91.60
12053;DHT22;6087;48.982;12.064;2022-10-04T06:54:32;8.40;70.20
12053;DHT22;6087;48.982;12.064;2022-10-04T06:57:21;8.40;60.00
12053;DHT22;6087;48.982;12.064;2022-10-04T07:00:03;8.50;47.70
12053;DHT22;6087;48.982;12.064;2022-10-04T07:02:37;8.50;37.80
12053;DHT22;6087;48.982;12.064;2022-10-04T07:05:17;8.50;33.90
12053;DHT22;6087;48.982;12.064;2022-10-04T07:07:55;8.50;21.30
12053;DHT22;6087;48.982;12.064;2022-10-04T07:10:36;8.50;21.30
12053;DHT22;6087;48.982;12.064;2022-10-04T07:13:23;8.50;32.60
12053;DHT22;6087;48.982;12.064;2022-10-04T07:15:58;8.60;36.60
12053;DHT22;6087;48.982;12.064;2022-10-04T07:18:31;8.60;35.30
12053;DHT22;6087;48.982;12.064;2022-10-04T07:21:03;8.70;43.60
12053;DHT22;6087;48.982;12.064;2022-10-04T07:23:35;8.70;33.00
12053;DHT22;6087;48.982;12.064;2022-10-04T07:26:06;8.70;37.40
12053;DHT22;6087;48.982;12.064;2022-10-04T07:28:41;8.70;37.50
12053;DHT22;6087;48.982;12.064;2022-10-04T07:31:28;8.70;39.80
12053;DHT22;6087;48.982;12.064;2022-10-04T07:33:59;8.80;42.00
12053;DHT22;6087;48.982;12.064;2022-10-04T07:36:30;8.80;28.70
12053;DHT22;6087;48.982;12.064;2022-10-04T07:39:10;8.80;51.40
12053;DHT22;6087;48.982;12.064;2022-10-04T07:41:44;8.80;69.40
12053;DHT22;6087;48.982;12.064;2022-10-04T07:44:16;8.90;86.40
12053;DHT22;6087;48.982;12.064;2022-10-04T07:46:48;8.90;96.50
12053;DHT22;6087;48.982;12.064;2022-10-04T07:49:20;9.00;95.40
12053;DHT22;6087;48.982;12.064;2022-10-04T07:52:15;9.10;99.30
12053;DHT22;6087;48.982;12.064;2022-10-04T07:54:51;9.20;99.70
12053;DHT22;6087;48.982;12.064;2022-10-04T07:57:28;9.30;97.20
12053;DHT22;6087;48.982;12.064;2022-10-04T08:00:03;9.40;98.20
12053;DHT22;6087;48.982;12.064;2022-10-04T08:02:41;9.40;98.90
12053;DHT22;6087;48.982;12.064;2022-10-04T08:05:19;9.50;99.90
12053;DHT22;6087;48.982;12.064;2022-10-04T08:08:03;9.50;98.70
12053;DHT22;6087;48.982;12.064;2022-10-04T08:10:40;9.60;98.80
12053;DHT22;6087;48.982;12.064;2022-10-04T08:13:25;9.60;95.50
12053;DHT22;6087;48.982;12.064;2022-10-04T08:15:58;9.70;96.50
12053;DHT22;6087;48.982;12.064;2022-10-04T08:18:37;9.70;93.20
12053;DHT22;6087;48.982;12.064;2022-10-04T08:21:15;9.70;96.50
12053;DHT22;6087;48.982;12.064;2022-10-04T08:23:54;9.80;94.50
12053;DHT22;6087;48.982;12.064;2022-10-04T08:26:39;9.80;92.50
12053;DHT22;6087;48.982;12.064;2022-10-04T08:29:32;9.90;92.30
12053;DHT22;6087;48.982;12.064;2022-10-04T08:32:20;9.90;82.40
12053;DHT22;6087;48.982;12.064;2022-10-04T08:35:01;10.00;88.80
12053;DHT22;6087;48.982;12.064;2022-10-04T08:37:37;10.00;91.60
12053;DHT22;6087;48.982;12.064;2022-10-04T08:40:41;10.00;84.90
12053;DHT22;6087;48.982;12.064;2022-10-04T08:43:27;10.00;80.60
12053;DHT22;6087;48.982;12.064;2022-10-04T08:49:18;10.10;82.50
12053;DHT22;6087;48.982;12.064;2022-10-04T08:52:11;10.10;73.40
12053;DHT22;6087;48.982;12.064;2022-10-04T08:58:13;10.20;80.80
12053;DHT22;6087;48.982;12.064;2022-10-04T09:00:56;10.20;71.80
12053;DHT22;6087;48.982;12.064;2022-10-04T09:06:46;10.30;77.10
12053;DHT22;6087;48.982;12.064;2022-10-04T09:09:47;10.40;79.80
12053;DHT22;6087;48.982;12.064;2022-10-04T09:12:52;10.50;84.20
12053;DHT22;6087;48.982;12.064;2022-10-04T09:15:36;10.50;88.80
12053;DHT22;6087;48.982;12.064;2022-10-04T09:18:37;10.60;95.90
12053;DHT22;6087;48.982;12.064;2022-10-04T09:21:14;10.60;93.30
12053;DHT22;6087;48.982;12.064;2022-10-04T09:24:27;10.70;90.70
12053;DHT22;6087;48.982;12.064;2022-10-04T09:27:06;10.70;91.90
12053;DHT22;6087;48.982;12.064;2022-10-04T09:29:53;10.70;87.40
12053;DHT22;6087;48.982;12.064;2022-10-04T09:39:03;10.80;83.90
12053;DHT22;6087;48.982;12.064;2022-10-04T09:41:55;10.90;79.40
12053;DHT22;6087;48.982;12.064;2022-10-04T09:44:51;10.90;72.60
12053;DHT22;6087;48.982;12.064;2022-10-04T09:47:28;11.00;79.90
12053;DHT22;6087;48.982;12.064;2022-10-04T09:53:39;11.00;78.40
12053;DHT22;6087;48.982;12.064;2022-10-04T09:56:30;11.10;76.60
12053;DHT22;6087;48.982;12.064;2022-10-04T09:59:35;11.10;73.60
12053;DHT22;6087;48.982;12.064;2022-10-04T10:05:34;11.20;90.70
12053;DHT22;6087;48.982;12.064;2022-10-04T10:08:14;11.30;92.70
12053;DHT22;6087;48.982;12.064;2022-10-04T10:10:51;11.40;99.90
12053;DHT22;6087;48.982;12.064;2022-10-04T10:16:52;11.50;83.90
12053;DHT22;6087;48.982;12.064;2022-10-04T10:19:59;11.50;92.80
12053;DHT22;6087;48.982;12.064;2022-10-04T10:22:52;11.60;99.90
12053;DHT22;6087;48.982;12.064;2022-10-04T10:25:29;11.70;94.10
12053;DHT22;6087;48.982;12.064;2022-10-04T10:28:33;11.80;79.90
12053;DHT22;6087;48.982;12.064;2022-10-04T10:31:20;11.80;72.00
12053;DHT22;6087;48.982;12.064;2022-10-04T10:36:59;11.90;80.20
12053;DHT22;6087;48.982;12.064;2022-10-04T10:39:55;12.00;72.90
12053;DHT22;6087;48.982;12.064;2022-10-04T10:42:47;12.10;84.50
12053;DHT22;6087;48.982;12.064;2022-10-04T10:45:40;12.10;47.70
12053;DHT22;6087;48.982;12.064;2022-10-04T10:48:14;12.20;32.70
12053;DHT22;6087;48.982;12.064;2022-10-04T10:50:53;12.20;38.60
12053;DHT22;6087;48.982;12.064;2022-10-04T10:53:51;12.20;43.30
12053;DHT22;6087;48.982;12.064;2022-10-04T10:56:37;12.30;86.10
12053;DHT22;6087;48.982;12.064;2022-10-04T11:02:47;12.40;62.30
12053;DHT22;6087;48.982;12.064;2022-10-04T11:11:43;12.70;90.60
12053;DHT22;6087;48.982;12.064;2022-10-04T11:14:28;12.80;73.90
12053;DHT22;6087;48.982;12.064;2022-10-04T11:17:18;12.90;67.30
12053;DHT22;6087;48.982;12.064;2022-10-04T11:20:42;13.00;72.10
12053;DHT22;6087;48.982;12.064;2022-10-04T11:23:44;13.10;49.50
12053;DHT22;6087;48.982;12.064;2022-10-04T11:29:24;13.30;25.80
12053;DHT22;6087;48.982;12.064;2022-10-04T11:32:30;13.40;7.50
12053;DHT22;6087;48.982;12.064;2022-10-04T11:38:46;14.00;1.00
12053;DHT22;6087;48.982;12.064;2022-10-04T11:41:20;14.30;1.00
12053;DHT22;6087;48.982;12.064;2022-10-04T11:44:26;14.40;1.00
12053;DHT22;6087;48.982;12.064;2022-10-04T11:47:00;14.40;1.00
12053;DHT22;6087;48.982;12.064;2022-10-04T11:49:59;14.40;1.00
12053;DHT22;6087;48.982;12.064;2022-10-04T11:56:06;14.50;1.00
12053;DHT22;6087;48.982;12.064;2022-10-04T11:58:48;14.60;1.00
12053;DHT22;6087;48.982;12.064;2022-10-04T12:04:37;15.30;1.00
12053;DHT22;6087;48.982;12.064;2022-10-04T12:07:26;15.80;99.90
12053;DHT22;6087;48.982;12.064;2022-10-04T12:10:04;16.40;99.90
12053;DHT22;6087;48.982;12.064;2022-10-04T12:12:52;17.10;99.90
12053;DHT22;6087;48.982;12.064;2022-10-04T12:15:45;17.90;1.00
12053;DHT22;6087;48.982;12.064;2022-10-04T12:18:51;19.10;1.00
12053;DHT22;6087;48.982;12.064;2022-10-04T12:21:40;20.20;99.90
12053;DHT22;6087;48.982;12.064;2022-10-04T12:24:47;21.30;99.90
12053;DHT22;6087;48.982;12.064;2022-10-04T12:30:28;23.60;1.00
12053;DHT22;6087;48.982;12.064;2022-10-04T12:33:11;24.90;1.00
12053;DHT22;6087;48.982;12.064;2022-10-04T12:35:52;25.80;1.00
12053;DHT22;6087;48.982;12.064;2022-10-04T12:38:34;26.50;1.00
12053;DHT22;6087;48.982;12.064;2022-10-04T12:41:13;27.50;1.00
12053;DHT22;6087;48.982;12.064;2022-10-04T12:43:48;28.30;1.00
12053;DHT22;6087;48.982;12.064;2022-10-04T12:46:27;29.00;15.40
12053;DHT22;6087;48.982;12.064;2022-10-04T12:49:05;29.60;99.90
12053;DHT22;6087;48.982;12.064;2022-10-04T12:51:44;30.50;1.00
12053;DHT22;6087;48.982;12.064;2022-10-04T12:54:31;31.20;99.90
12053;DHT22;6087;48.982;12.064;2022-10-04T12:57:15;31.90;99.90
12053;DHT22;6087;48.982;12.064;2022-10-04T12:59:50;32.60;99.90
12053;DHT22;6087;48.982;12.064;2022-10-04T13:02:34;33.40;99.90
12053;DHT22;6087;48.982;12.064;2022-10-04T13:05:13;33.90;99.90
12053;DHT22;6087;48.982;12.064;2022-10-04T13:08:03;34.40;99.90
12053;DHT22;6087;48.982;12.064;2022-10-04T13:10:41;35.00;95.10
12053;DHT22;6087;48.982;12.064;2022-10-04T13:13:43;35.70;96.60
12053;DHT22;6087;48.982;12.064;2022-10-04T13:16:21;36.00;1.00
12053;DHT22;6087;48.982;12.064;2022-10-04T13:18:58;36.30;1.00
12053;DHT22;6087;48.982;12.064;2022-10-04T13:21:58;36.50;1.00
12053;DHT22;6087;48.982;12.064;2022-10-04T13:24:32;36.70;1.00
12053;DHT22;6087;48.982;12.064;2022-10-04T13:27:23;36.80;99.90
12053;DHT22;6087;48.982;12.064;2022-10-04T13:29:56;37.00;99.90
12053;DHT22;6087;48.982;12.064;2022-10-04T13:32:31;37.00;99.90
12053;DHT22;6087;48.982;12.064;2022-10-04T13:35:06;37.10;1.00
12053;DHT22;6087;48.982;12.064;2022-10-04T13:37:43;37.20;1.00
12053;DHT22;6087;48.982;12.064;2022-10-04T13:40:29;37.30;1.00
12053;DHT22;6087;48.982;12.064;2022-10-04T13:46:00;37.60;99.90
12053;DHT22;6087;48.982;12.064;2022-10-04T13:48:40;37.50;99.90
12053;DHT22;6087;48.982;12.064;2022-10-04T13:51:27;37.30;1.00
12053;DHT22;6087;48.982;12.064;2022-10-04T13:54:09;37.40;1.00
12053;DHT22;6087;48.982;12.064;2022-10-04T13:57:00;37.40;1.00
12053;DHT22;6087;48.982;12.064;2022-10-04T13:59:39;37.30;99.90
12053;DHT22;6087;48.982;12.064;2022-10-04T14:02:26;37.30;1.00
12053;DHT22;6087;48.982;12.064;2022-10-04T14:05:16;37.40;1.00
12053;DHT22;6087;48.982;12.064;2022-10-04T14:08:04;37.40;1.00
12053;DHT22;6087;48.982;12.064;2022-10-04T14:11:06;37.20;99.90
12053;DHT22;6087;48.982;12.064;2022-10-04T14:14:07;37.00;1.00
12053;DHT22;6087;48.982;12.064;2022-10-04T14:17:06;36.80;1.00
12053;DHT22;6087;48.982;12.064;2022-10-04T14:26:02;33.10;99.90
12053;DHT22;6087;48.982;12.064;2022-10-04T14:29:09;31.50;99.90
12053;DHT22;6087;48.982;12.064;2022-10-04T14:32:13;30.20;99.90
12053;DHT22;6087;48.982;12.064;2022-10-04T14:34:55;29.10;1.00
12053;DHT22;6087;48.982;12.064;2022-10-04T14:37:48;28.40;99.90
12053;DHT22;6087;48.982;12.064;2022-10-04T14:43:47;26.60;99.90
12053;DHT22;6087;48.982;12.064;2022-10-04T14:46:21;25.40;1.00
12053;DHT22;6087;48.982;12.064;2022-10-04T14:49:08;24.80;99.90
12053;DHT22;6087;48.982;12.064;2022-10-04T14:54:39;23.80;98.50
12053;DHT22;6087;48.982;12.064;2022-10-04T14:57:12;23.30;1.00
12053;DHT22;6087;48.982;12.064;2022-10-04T15:00:03;22.90;1.00
12053;DHT22;6087;48.982;12.064;2022-10-04T15:03:06;22.50;99.90
12053;DHT22;6087;48.982;12.064;2022-10-04T15:05:43;22.10;99.90
12053;DHT22;6087;48.982;12.064;2022-10-04T15:08:52;21.80;99.90
12053;DHT22;6087;48.982;12.064;2022-10-04T15:11:39;21.60;1.00
12053;DHT22;6087;48.982;12.064;2022-10-04T15:14:33;21.30;1.00
12053;DHT22;6087;48.982;12.064;2022-10-04T15:17:07;21.00;1.00
12053;DHT22;6087;48.982;12.064;2022-10-04T15:20:04;20.80;21.00
12053;DHT22;6087;48.982;12.064;2022-10-04T15:22:39;20.60;1.00
12053;DHT22;6087;48.982;12.064;2022-10-04T15:25:37;20.40;1.00
12053;DHT22;6087;48.982;12.064;2022-10-04T15:28:10;20.20;1.00
12053;DHT22;6087;48.982;12.064;2022-10-04T15:30:49;20.00;1.00
12053;DHT22;6087;48.982;12.064;2022-10-04T15:33:26;19.80;1.00
12053;DHT22;6087;48.982;12.064;2022-10-04T15:36:23;19.60;1.00
12053;DHT22;6087;48.982;12.064;2022-10-04T15:38:56;19.50;1.00
12053;DHT22;6087;48.982;12.064;2022-10-04T15:41:34;19.30;1.00
12053;DHT22;6087;48.982;12.064;2022-10-04T15:44:27;19.10;1.00
12053;DHT22;6087;48.982;12.064;2022-10-04T15:47:07;19.00;1.00
12053;DHT22;6087;48.982;12.064;2022-10-04T15:49:50;18.80;1.00
12053;DHT22;6087;48.982;12.064;2022-10-04T15:55:56;18.50;11.00
12053;DHT22;6087;48.982;12.064;2022-10-04T15:58:42;18.30;38.00
12053;DHT22;6087;48.982;12.064;2022-10-04T16:01:25;18.20;99.90
12053;DHT22;6087;48.982;12.064;2022-10-04T16:04:29;18.00;99.90
12053;DHT22;6087;48.982;12.064;2022-10-04T16:07:28;17.90;99.90
12053;DHT22;6087;48.982;12.064;2022-10-04T16:10:00;17.70;99.90
12053;DHT22;6087;48.982;12.064;2022-10-04T16:12:51;17.60;99.90
12053;DHT22;6087;48.982;12.064;2022-10-04T16:15:30;17.50;99.90
12053;DHT22;6087;48.982;12.064;2022-10-04T16:18:11;17.40;99.90
12053;DHT22;6087;48.982;12.064;2022-10-04T16:20:59;17.30;1.00
12053;DHT22;6087;48.982;12.064;2022-10-04T16:23:33;17.10;1.00
12053;DHT22;6087;48.982;12.064;2022-10-04T16:26:03;17.00;1.00
12053;DHT22;6087;48.982;12.064;2022-10-04T16:28:43;17.00;1.00
12053;DHT22;6087;48.982;12.064;2022-10-04T16:31:23;16.90;1.00
12053;DHT22;6087;48.982;12.064;2022-10-04T16:34:01;16.80;1.00
12053;DHT22;6087;48.982;12.064;2022-10-04T16:36:43;16.60;1.00
12053;DHT22;6087;48.982;12.064;2022-10-04T16:39:31;16.50;1.00
12053;DHT22;6087;48.982;12.064;2022-10-04T16:42:20;16.40;29.30
12053;DHT22;6087;48.982;12.064;2022-10-04T16:44:51;16.30;47.50
12053;DHT22;6087;48.982;12.064;2022-10-04T16:47:22;16.20;99.90
12053;DHT22;6087;48.982;12.064;2022-10-04T16:49:53;16.10;99.90
12053;DHT22;6087;48.982;12.064;2022-10-04T16:52:41;16.00;99.90
12053;DHT22;6087;48.982;12.064;2022-10-04T16:55:50;15.90;99.90
12053;DHT22;6087;48.982;12.064;2022-10-04T16:58:44;15.80;1.00
12053;DHT22;6087;48.982;12.064;2022-10-04T17:01:45;15.70;6.60
12053;DHT22;6087;48.982;12.064;2022-10-04T17:04:41;15.50;99.90
12053;DHT22;6087;48.982;12.064;2022-10-04T17:07:19;15.50;99.90
12053;DHT22;6087;48.982;12.064;2022-10-04T17:09:52;15.40;1.00
12053;DHT22;6087;48.982;12.064;2022-10-04T17:12:26;15.30;1.00
12053;DHT22;6087;48.982;12.064;2022-10-04T17:15:21;15.30;1.00
12053;DHT22;6087;48.982;12.064;2022-10-04T17:17:56;15.20;1.00
12053;DHT22;6087;48.982;12.064;2022-10-04T17:20:35;15.10;1.00
12053;DHT22;6087;48.982;12.064;2022-10-04T17:23:15;15.10;1.00
12053;DHT22;6087;48.982;12.064;2022-10-04T17:25:49;15.00;1.00
12053;DHT22;6087;48.982;12.064;2022-10-04T17:28:26;14.90;1.00
12053;DHT22;6087;48.982;12.064;2022-10-04T17:31:00;14.90;99.90
12053;DHT22;6087;48.982;12.064;2022-10-04T17:33:45;14.80;99.90
12053;DHT22;6087;48.982;12.064;2022-10-04T17:36:32;14.70;1.00
12053;DHT22;6087;48.982;12.064;2022-10-04T17:39:17;14.70;1.00
12053;DHT22;6087;48.982;12.064;2022-10-04T17:42:05;14.60;99.90
12053;DHT22;6087;48.982;12.064;2022-10-04T17:44:43;14.50;1.00
12053;DHT22;6087;48.982;12.064;2022-10-04T17:47:17;14.50;1.00
12053;DHT22;6087;48.982;12.064;2022-10-04T17:49:55;14.40;1.00
12053;DHT22;6087;48.982;12.064;2022-10-04T17:52:44;14.40;1.00
12053;DHT22;6087;48.982;12.064;2022-10-04T17:55:41;14.30;1.00
12053;DHT22;6087;48.982;12.064;2022-10-04T17:58:13;14.30;1.00
12053;DHT22;6087;48.982;12.064;2022-10-04T18:00:53;14.30;1.00
12053;DHT22;6087;48.982;12.064;2022-10-04T18:03:24;14.20;1.00
12053;DHT22;6087;48.982;12.064;2022-10-04T18:05:56;14.10;1.00
12053;DHT22;6087;48.982;12.064;2022-10-04T18:08:39;14.10;1.00
12053;DHT22;6087;48.982;12.064;2022-10-04T18:11:15;14.00;1.00
12053;DHT22;6087;48.982;12.064;2022-10-04T18:13:48;14.00;64.90
12053;DHT22;6087;48.982;12.064;2022-10-04T18:16:22;14.00;63.20
12053;DHT22;6087;48.982;12.064;2022-10-04T18:18:50;14.00;99.90
12053;DHT22;6087;48.982;12.064;2022-10-04T18:21:19;13.90;99.90
12053;DHT22;6087;48.982;12.064;2022-10-04T18:23:52;13.90;1.00
12053;DHT22;6087;48.982;12.064;2022-10-04T18:26:20;13.80;1.00
12053;DHT22;6087;48.982;12.064;2022-10-04T18:28:48;13.80;1.00
12053;DHT22;6087;48.982;12.064;2022-10-04T18:31:28;13.80;1.00
12053;DHT22;6087;48.982;12.064;2022-10-04T18:33:56;13.80;1.00